createdAt,value
2022-11-20T00:00:29.514Z,-4.09
2022-11-20T00:03:14.937Z,-3.97
2022-11-20T00:06:05.407Z,-3.88
2022-11-20T00:08:51.494Z,-3.84
2022-11-20T00:11:36.571Z,-3.92
2022-11-20T00:14:21.681Z,-4.22
2022-11-20T00:17:07.097Z,-4.30
2022-11-20T00:19:52.100Z,-4.12
2022-11-20T00:22:37.364Z,-4.21
2022-11-20T00:25:22.539Z,-4.22
2022-11-20T00:28:07.780Z,-4.23
2022-11-20T00:30:53.231Z,-4.66
2022-11-20T00:33:38.639Z,-4.86
2022-11-20T00:36:26.069Z,-4.77
2022-11-20T00:39:11.409Z,-4.57
2022-11-20T00:41:56.185Z,-4.38
2022-11-20T00:44:41.647Z,-4.43
2022-11-20T00:47:27.949Z,-4.28
2022-11-20T00:50:13.209Z,-4.21
2022-11-20T00:52:58.612Z,-4.11
2022-11-20T00:55:43.549Z,-4.04
2022-11-20T00:58:34.501Z,-3.97
2022-11-20T01:01:22.460Z,-4.33
2022-11-20T01:04:07.658Z,-4.53
2022-11-20T01:06:52.583Z,-4.44
2022-11-20T01:09:37.710Z,-4.31
2022-11-20T01:12:23.228Z,-4.20
2022-11-20T01:15:08.725Z,-4.35
2022-11-20T01:17:53.984Z,-4.62
2022-11-20T01:20:39.386Z,-4.72
2022-11-20T01:23:24.317Z,-4.76
2022-11-20T01:26:14.906Z,-4.82
2022-11-20T01:29:01.319Z,-4.90
2022-11-20T01:31:46.873Z,-4.67
2022-11-20T01:34:32.121Z,-4.57
2022-11-20T01:37:17.252Z,-5.01
2022-11-20T01:40:03.448Z,-5.04
2022-11-20T01:42:56.567Z,-5.09
2022-11-20T01:46:18.496Z,-5.00
2022-11-20T01:49:11.835Z,-4.88
2022-11-20T01:52:05.601Z,-4.82
2022-11-20T01:54:53.916Z,-5.03
2022-11-20T01:57:39.692Z,-5.51
2022-11-20T02:00:27.972Z,-5.57
2022-11-20T02:03:20.829Z,-5.55
2022-11-20T02:06:18.014Z,-5.50
2022-11-20T02:09:03.438Z,-5.54
2022-11-20T02:11:48.768Z,-5.48
2022-11-20T02:14:33.919Z,-5.42
2022-11-20T02:17:18.958Z,-5.33
2022-11-20T02:20:04.946Z,-5.38
2022-11-20T02:23:00.736Z,-5.38
2022-11-20T02:25:47.744Z,-5.35
2022-11-20T02:28:33.400Z,-5.32
2022-11-20T02:31:18.443Z,-5.28
2022-11-20T02:34:03.760Z,-5.27
2022-11-20T02:36:50.405Z,-5.25
2022-11-20T02:39:35.721Z,-5.31
2022-11-20T02:42:21.223Z,-5.28
2022-11-20T02:45:07.239Z,-5.41
2022-11-20T02:47:53.348Z,-5.34
2022-11-20T02:50:40.027Z,-5.30
2022-11-20T02:53:24.767Z,-5.40
2022-11-20T02:56:09.652Z,-5.34
2022-11-20T02:58:54.578Z,-5.28
2022-11-20T03:01:40.097Z,-5.29
2022-11-20T03:04:25.429Z,-5.34
2022-11-20T03:07:10.691Z,-5.47
2022-11-20T03:09:55.982Z,-5.52
2022-11-20T03:12:41.251Z,-5.63
2022-11-20T03:15:29.176Z,-5.42
2022-11-20T03:18:14.428Z,-5.44
2022-11-20T03:21:00.170Z,-5.57
2022-11-20T03:23:45.740Z,-5.55
2022-11-20T03:26:31.163Z,-5.56
2022-11-20T03:29:15.986Z,-5.36
2022-11-20T03:32:00.822Z,-5.28
2022-11-20T03:34:46.288Z,-5.31
2022-11-20T03:37:31.420Z,-5.46
2022-11-20T03:40:16.669Z,-5.35
2022-11-20T03:43:01.759Z,-5.23
2022-11-20T03:45:46.855Z,-5.22
2022-11-20T03:48:32.357Z,-5.47
2022-11-20T03:51:29.495Z,-5.75
2022-11-20T03:54:14.880Z,-5.61
2022-11-20T03:57:00.164Z,-5.79
2022-11-20T03:59:45.571Z,-5.83
2022-11-20T04:02:31.503Z,-5.94
2022-11-20T04:05:16.800Z,-5.87
2022-11-20T04:08:01.931Z,-5.86
2022-11-20T04:10:46.763Z,-6.24
2022-11-20T04:13:32.040Z,-6.27
2022-11-20T04:16:17.875Z,-6.09
2022-11-20T04:19:05.410Z,-5.79
2022-11-20T04:21:50.681Z,-5.78
2022-11-20T04:24:35.604Z,-5.91
2022-11-20T04:27:20.695Z,-6.01
2022-11-20T04:30:06.182Z,-5.86
2022-11-20T04:32:51.105Z,-5.94
2022-11-20T04:35:37.038Z,-5.86
2022-11-20T04:38:22.247Z,-5.79
2022-11-20T04:41:10.269Z,-5.89
2022-11-20T04:43:58.522Z,-5.97
2022-11-20T04:46:43.635Z,-6.07
2022-11-20T04:49:28.944Z,-6.10
2022-11-20T04:52:14.306Z,-6.03
2022-11-20T04:54:59.612Z,-5.96
2022-11-20T04:57:44.648Z,-5.94
2022-11-20T05:00:29.978Z,-5.87
2022-11-20T05:03:15.275Z,-5.98
2022-11-20T05:06:02.188Z,-6.21
2022-11-20T05:08:47.185Z,-6.27
2022-11-20T05:11:33.149Z,-6.22
2022-11-20T05:14:18.200Z,-6.18
2022-11-20T05:17:03.623Z,-5.94
2022-11-20T05:19:52.955Z,-5.85
2022-11-20T05:22:38.580Z,-5.92
2022-11-20T05:25:24.017Z,-5.95
2022-11-20T05:28:09.292Z,-5.84
2022-11-20T05:30:54.590Z,-5.88
2022-11-20T05:33:44.074Z,-5.84
2022-11-20T05:36:28.870Z,-5.77
2022-11-20T05:39:13.748Z,-5.53
2022-11-20T05:41:58.855Z,-5.47
2022-11-20T05:44:44.323Z,-5.65
2022-11-20T05:47:33.328Z,-5.65
2022-11-20T05:50:18.642Z,-5.67
2022-11-20T05:53:03.986Z,-5.77
2022-11-20T05:55:57.465Z,-5.83
2022-11-20T05:58:43.204Z,-5.82
2022-11-20T06:01:28.133Z,-5.78
2022-11-20T06:04:13.626Z,-5.75
2022-11-20T06:06:59.401Z,-5.68
2022-11-20T06:09:44.469Z,-5.58
2022-11-20T06:12:32.860Z,-5.53
2022-11-20T06:15:17.766Z,-5.52
2022-11-20T06:18:02.659Z,-5.37
2022-11-20T06:20:47.916Z,-5.45
2022-11-20T06:23:34.511Z,-5.51
2022-11-20T06:26:22.399Z,-5.39
2022-11-20T06:29:07.487Z,-5.15
2022-11-20T06:31:52.532Z,-5.16
2022-11-20T06:34:37.532Z,-5.08
2022-11-20T06:37:23.100Z,-5.09
2022-11-20T06:40:09.163Z,-4.99
2022-11-20T06:42:55.159Z,-4.83
2022-11-20T06:45:40.296Z,-4.87
2022-11-20T06:48:29.752Z,-4.88
2022-11-20T06:51:15.188Z,-4.81
2022-11-20T06:54:00.512Z,-4.84
2022-11-20T06:56:49.719Z,-4.90
2022-11-20T06:59:34.999Z,-4.92
2022-11-20T07:02:20.349Z,-4.80
2022-11-20T07:05:05.895Z,-4.64
2022-11-20T07:07:51.003Z,-4.69
2022-11-20T07:10:36.411Z,-4.83
2022-11-20T07:13:21.329Z,-4.82
2022-11-20T07:16:08.627Z,-4.71
2022-11-20T07:18:53.739Z,-4.83
2022-11-20T07:21:39.074Z,-4.89
2022-11-20T07:24:24.006Z,-4.76
2022-11-20T07:27:08.929Z,-4.69
2022-11-20T07:29:54.095Z,-4.64
2022-11-20T07:32:39.291Z,-4.57
2022-11-20T07:35:25.603Z,-4.54
2022-11-20T07:38:10.649Z,-4.38
2022-11-20T07:40:56.490Z,-4.28
2022-11-20T07:43:41.840Z,-4.13
2022-11-20T07:46:27.256Z,-3.97
2022-11-20T07:49:12.503Z,-4.00
2022-11-20T07:52:01.726Z,-3.80
2022-11-20T07:54:49.368Z,-3.98
2022-11-20T07:57:34.799Z,-3.88
2022-11-20T08:00:19.961Z,-3.88
2022-11-20T08:03:05.504Z,-3.87
2022-11-20T08:05:50.396Z,-3.68
2022-11-20T08:08:40.079Z,-3.61
2022-11-20T08:11:27.817Z,-3.67
2022-11-20T08:14:12.721Z,-3.65
2022-11-20T08:16:57.887Z,-3.49
2022-11-20T08:19:43.017Z,-3.52
2022-11-20T08:22:29.543Z,-3.47
2022-11-20T08:25:14.988Z,-3.39
2022-11-20T08:28:04.180Z,-3.47
2022-11-20T08:31:02.638Z,-3.54
2022-11-20T08:33:47.674Z,-3.43
2022-11-20T08:36:34.623Z,-3.38
2022-11-20T08:39:20.647Z,-3.25
2022-11-20T08:42:09.097Z,-3.35
2022-11-20T08:44:54.332Z,-3.23
2022-11-20T08:47:39.325Z,-3.17
2022-11-20T08:50:24.681Z,-3.18
2022-11-20T08:53:09.705Z,-2.96
2022-11-20T08:55:54.651Z,-2.90
2022-11-20T08:59:09.737Z,-2.81
2022-11-20T09:01:45.144Z,-2.70
2022-11-20T09:04:30.028Z,-2.68
2022-11-20T09:07:15.525Z,-2.55
2022-11-20T09:10:22.564Z,-2.70
2022-11-20T09:13:05.439Z,-2.73
2022-11-20T09:15:59.365Z,-2.86
2022-11-20T09:18:44.455Z,-2.86
2022-11-20T09:21:34.042Z,-2.69
2022-11-20T09:24:19.325Z,-2.59
2022-11-20T09:27:05.710Z,-2.54
2022-11-20T09:29:50.718Z,-2.53
2022-11-20T09:32:36.184Z,-2.41
2022-11-20T09:35:21.350Z,-2.26
2022-11-20T09:38:11.015Z,-2.17
2022-11-20T09:41:03.676Z,-2.01
2022-11-20T09:44:26.127Z,-1.89
2022-11-20T09:47:32.791Z,-1.67
2022-11-20T09:50:26.757Z,-1.48
2022-11-20T09:53:21.411Z,-1.22
2022-11-20T09:56:11.957Z,-1.13
2022-11-20T09:59:03.116Z,-1.08
2022-11-20T10:01:49.001Z,-0.95
2022-11-20T10:04:39.665Z,-0.88
2022-11-20T10:07:32.273Z,-0.69
2022-11-20T10:10:30.071Z,-0.49
2022-11-20T10:13:30.443Z,-0.17
2022-11-20T10:16:45.311Z,0.02
2022-11-20T10:20:01.847Z,0.02
2022-11-20T10:23:10.668Z,-0.12
2022-11-20T10:26:03.838Z,-0.09
2022-11-20T10:29:00.668Z,0.09
2022-11-20T10:31:55.707Z,0.55
2022-11-20T10:34:50.123Z,0.71
2022-11-20T10:37:41.409Z,0.55
2022-11-20T10:40:40.921Z,0.30
2022-11-20T10:43:33.920Z,0.43
2022-11-20T10:46:22.464Z,0.49
2022-11-20T10:49:15.394Z,0.59
2022-11-20T10:52:12.097Z,1.03
2022-11-20T10:55:03.107Z,1.13
2022-11-20T10:58:27.693Z,0.94
2022-11-20T11:01:19.315Z,1.52
2022-11-20T11:04:23.404Z,1.25
2022-11-20T11:07:34.923Z,1.04
2022-11-20T11:13:31.824Z,0.61
2022-11-20T11:16:23.019Z,0.75
2022-11-20T11:19:15.735Z,0.82
2022-11-20T11:22:01.840Z,0.92
2022-11-20T11:24:54.201Z,0.96
2022-11-20T11:27:50.422Z,0.88
2022-11-20T11:30:45.622Z,0.89
2022-11-20T11:33:33.183Z,0.85
2022-11-20T11:36:22.837Z,0.75
2022-11-20T11:39:16.717Z,0.92
2022-11-20T11:42:02.578Z,1.02
2022-11-20T11:44:49.097Z,1.06
2022-11-20T11:47:45.374Z,1.12
2022-11-20T11:50:30.817Z,1.22
2022-11-20T11:53:21.934Z,1.11
2022-11-20T11:56:12.167Z,1.11
2022-11-20T11:59:02.322Z,0.99
2022-11-20T12:02:05.199Z,0.88
2022-11-20T12:04:57.884Z,0.81
2022-11-20T12:07:47.902Z,0.82
2022-11-20T12:11:12.018Z,0.86
2022-11-20T12:14:14.237Z,1.02
2022-11-20T12:16:59.213Z,1.18
2022-11-20T12:19:44.311Z,1.40
2022-11-20T12:22:47.178Z,1.63
2022-11-20T12:25:36.240Z,1.73
2022-11-20T12:28:24.424Z,2.07
2022-11-20T12:31:38.876Z,2.32
2022-11-20T12:34:23.628Z,2.22
2022-11-20T12:37:20.160Z,1.79
2022-11-20T12:40:33.640Z,1.39
2022-11-20T12:43:24.948Z,1.27
2022-11-20T12:46:24.909Z,1.26
2022-11-20T12:49:29.133Z,1.43
2022-11-20T12:52:23.933Z,1.77
2022-11-20T12:55:09.483Z,2.11
2022-11-20T12:58:13.123Z,2.47
2022-11-20T13:01:26.472Z,2.82
2022-11-20T13:04:37.687Z,2.75
2022-11-20T13:07:26.981Z,2.97
2022-11-20T13:10:24.351Z,3.33
2022-11-20T13:13:18.695Z,4.31
2022-11-20T13:16:14.527Z,5.19
2022-11-20T13:19:05.442Z,4.46
2022-11-20T13:21:51.592Z,4.02
2022-11-20T13:24:36.907Z,4.32
2022-11-20T13:27:23.899Z,3.53
2022-11-20T13:30:24.556Z,2.71
2022-11-20T13:33:26.528Z,2.50
2022-11-20T13:36:29.681Z,2.47
2022-11-20T13:39:27.486Z,2.59
2022-11-20T13:42:12.725Z,2.72
2022-11-20T13:45:04.182Z,3.04
2022-11-20T13:47:51.096Z,2.82
2022-11-20T13:50:36.814Z,2.68
2022-11-20T13:53:46.787Z,2.87
2022-11-20T13:56:53.748Z,2.87
2022-11-20T13:59:50.529Z,3.00
2022-11-20T14:02:35.949Z,3.05
2022-11-20T14:05:24.719Z,3.01
2022-11-20T14:08:19.554Z,2.57
2022-11-20T14:11:19.070Z,2.48
2022-11-20T14:14:05.305Z,2.43
2022-11-20T14:16:51.845Z,2.36
2022-11-20T14:19:39.864Z,2.39
2022-11-20T14:22:29.172Z,2.32
2022-11-20T14:25:24.663Z,2.16
2022-11-20T14:28:25.365Z,2.18
2022-11-20T14:31:22.277Z,2.11
2022-11-20T14:34:16.593Z,2.16
2022-11-20T14:37:06.392Z,2.21
2022-11-20T14:39:54.358Z,2.22
2022-11-20T14:42:44.736Z,2.27
2022-11-20T14:45:30.158Z,2.15
2022-11-20T14:48:16.726Z,2.06
2022-11-20T14:51:02.038Z,2.02
2022-11-20T14:53:47.204Z,2.12
2022-11-20T14:56:32.146Z,2.12
2022-11-20T14:59:24.805Z,1.99
2022-11-20T15:02:13.012Z,1.96
2022-11-20T15:04:59.911Z,1.97
2022-11-20T15:07:48.630Z,2.07
2022-11-20T15:10:33.801Z,1.99
2022-11-20T15:14:21.589Z,1.93
2022-11-20T15:17:41.328Z,1.93
2022-11-20T15:20:31.045Z,1.94
2022-11-20T15:23:22.457Z,1.96
2022-11-20T15:26:18.429Z,1.96
2022-11-20T15:29:05.291Z,1.91
2022-11-20T15:31:50.627Z,1.94
2022-11-20T15:34:35.732Z,1.92
2022-11-20T15:37:22.965Z,1.91
2022-11-20T15:40:11.814Z,2.06
2022-11-20T15:42:57.002Z,1.93
2022-11-20T15:45:47.151Z,1.93
2022-11-20T15:48:52.977Z,1.94
2022-11-20T15:51:40.647Z,1.79
2022-11-20T15:54:25.964Z,1.86
2022-11-20T15:57:13.548Z,1.86
2022-11-20T16:00:04.258Z,1.96
2022-11-20T16:02:49.337Z,1.79
2022-11-20T16:05:34.357Z,1.87
2022-11-20T16:08:19.296Z,1.89
2022-11-20T16:11:04.846Z,1.83
2022-11-20T16:13:49.739Z,1.98
2022-11-20T16:16:39.171Z,1.89
2022-11-20T16:19:24.447Z,2.05
2022-11-20T16:22:11.808Z,2.03
2022-11-20T16:24:56.975Z,1.99
2022-11-20T16:27:41.936Z,1.94
2022-11-20T16:30:27.377Z,2.01
2022-11-20T16:33:15.340Z,1.99
2022-11-20T16:36:14.219Z,1.99
2022-11-20T16:39:03.069Z,2.04
2022-11-20T16:41:48.007Z,2.01
2022-11-20T16:44:33.391Z,2.02
2022-11-20T16:47:18.590Z,1.99
2022-11-20T16:50:05.268Z,1.95
2022-11-20T16:52:50.462Z,1.94
2022-11-20T16:55:37.568Z,1.97
2022-11-20T16:58:22.571Z,1.89
2022-11-20T17:01:12.458Z,1.89
2022-11-20T17:04:03.887Z,1.76
2022-11-20T17:06:48.870Z,1.79
2022-11-20T17:09:34.390Z,1.85
2022-11-20T17:12:19.571Z,1.79
2022-11-20T17:15:05.027Z,1.81
2022-11-20T17:17:49.896Z,1.79
2022-11-20T17:20:34.919Z,1.84
2022-11-20T17:23:19.965Z,1.83
2022-11-20T17:26:24.485Z,1.86
2022-11-20T17:29:18.155Z,1.73
2022-11-20T17:32:03.732Z,1.74
2022-11-20T17:34:48.974Z,1.82
2022-11-20T17:37:34.432Z,1.75
2022-11-20T17:40:23.132Z,1.77
2022-11-20T17:43:11.195Z,1.60
2022-11-20T17:45:57.025Z,1.66
2022-11-20T17:48:42.147Z,1.63
2022-11-20T17:51:29.607Z,1.61
2022-11-20T17:54:20.894Z,1.49
2022-11-20T17:57:06.932Z,1.54
2022-11-20T17:59:51.710Z,1.26
2022-11-20T18:02:39.828Z,1.12
2022-11-20T18:05:28.151Z,1.00
2022-11-20T18:08:13.259Z,0.86
2022-11-20T18:10:58.796Z,0.76
2022-11-20T18:13:47.872Z,0.74
2022-11-20T18:16:35.995Z,0.64
2022-11-20T18:19:28.734Z,0.54
2022-11-20T18:22:19.493Z,0.50
2022-11-20T18:25:05.085Z,0.52
2022-11-20T18:27:50.101Z,0.54
2022-11-20T18:30:36.229Z,0.62
2022-11-20T18:33:26.925Z,0.67
2022-11-20T18:36:14.989Z,0.73
2022-11-20T18:39:00.530Z,0.72
2022-11-20T18:41:45.638Z,0.73
2022-11-20T18:44:31.831Z,0.66
2022-11-20T18:47:25.909Z,0.61
2022-11-20T18:50:10.791Z,0.66
2022-11-20T18:52:55.670Z,0.73
2022-11-20T18:55:41.334Z,0.71
2022-11-20T18:58:28.010Z,0.70
2022-11-20T19:01:13.272Z,0.67
2022-11-20T19:03:58.876Z,0.72
2022-11-20T19:06:45.821Z,0.63
2022-11-20T19:09:30.697Z,0.60
2022-11-20T19:12:16.117Z,0.69
2022-11-20T19:15:01.258Z,0.58
2022-11-20T19:17:46.075Z,0.60
2022-11-20T19:20:31.234Z,0.66
2022-11-20T19:23:16.635Z,0.68
2022-11-20T19:26:02.215Z,0.70
2022-11-20T19:28:47.536Z,0.73
2022-11-20T19:31:33.253Z,0.75
2022-11-20T19:34:18.763Z,0.69
2022-11-20T19:37:03.994Z,0.72
2022-11-20T19:39:48.904Z,0.67
2022-11-20T19:42:33.935Z,0.71
2022-11-20T19:45:19.135Z,0.74
2022-11-20T19:48:08.498Z,0.70
2022-11-20T19:50:53.929Z,0.66
2022-11-20T19:53:39.131Z,0.77
2022-11-20T19:56:25.822Z,0.78
2022-11-20T19:59:11.011Z,0.74
2022-11-20T20:01:56.373Z,0.64
2022-11-20T20:04:41.826Z,0.72
2022-11-20T20:07:26.785Z,0.75
2022-11-20T20:10:12.293Z,0.70
2022-11-20T20:12:57.749Z,0.74
2022-11-20T20:15:43.137Z,0.79
2022-11-20T20:18:28.065Z,0.75
2022-11-20T20:21:16.350Z,0.66
2022-11-20T20:24:02.375Z,0.70
2022-11-20T20:26:54.279Z,0.64
2022-11-20T20:29:41.935Z,0.71
2022-11-20T20:32:31.122Z,0.80
2022-11-20T20:35:16.300Z,0.71
2022-11-20T20:38:01.647Z,0.74
2022-11-20T20:40:48.299Z,0.80
2022-11-20T20:43:38.251Z,0.70
2022-11-20T20:46:24.518Z,0.81
2022-11-20T20:49:09.636Z,0.68
2022-11-20T20:51:54.470Z,0.81
2022-11-20T20:54:39.881Z,0.65
2022-11-20T20:57:26.397Z,0.61
2022-11-20T21:00:11.804Z,0.59
2022-11-20T21:02:57.104Z,0.70
2022-11-20T21:05:43.744Z,0.72
2022-11-20T21:08:29.317Z,0.79
2022-11-20T21:11:19.454Z,0.73
2022-11-20T21:14:04.635Z,0.69
2022-11-20T21:16:49.579Z,0.67
2022-11-20T21:19:34.488Z,0.70
2022-11-20T21:22:19.282Z,0.74
2022-11-20T21:25:04.262Z,0.72
2022-11-20T21:27:50.284Z,0.69
2022-11-20T21:30:37.346Z,0.62
2022-11-20T21:33:22.568Z,0.64
2022-11-20T21:36:12.921Z,0.65
2022-11-20T21:38:59.367Z,0.59
2022-11-20T21:41:44.304Z,0.57
2022-11-20T21:44:31.312Z,0.62
2022-11-20T21:47:26.747Z,0.53
2022-11-20T21:50:12.002Z,0.51
2022-11-20T21:52:56.832Z,0.48
2022-11-20T21:55:41.659Z,0.56
2022-11-20T21:58:27.655Z,0.51
2022-11-20T22:01:21.441Z,0.42
2022-11-20T22:04:06.661Z,0.36
2022-11-20T22:06:52.743Z,0.34
2022-11-20T22:09:37.778Z,0.38
2022-11-20T22:12:22.729Z,0.38
2022-11-20T22:15:08.916Z,0.38
2022-11-20T22:17:53.888Z,0.40
2022-11-20T22:20:39.071Z,0.40
2022-11-20T22:23:24.078Z,0.35
2022-11-20T22:26:14.654Z,0.43
2022-11-20T22:29:00.371Z,0.38
2022-11-20T22:31:45.287Z,0.35
2022-11-20T22:34:30.207Z,0.29
2022-11-20T22:37:15.117Z,0.22
2022-11-20T22:40:00.055Z,0.40
2022-11-20T22:42:45.753Z,0.44
2022-11-20T22:45:30.763Z,0.47
2022-11-20T22:48:16.089Z,0.48
2022-11-20T22:51:06.341Z,0.37
2022-11-20T22:53:51.374Z,0.35
2022-11-20T22:56:36.644Z,0.28
2022-11-20T22:59:21.680Z,0.24
2022-11-20T23:02:06.756Z,0.36
2022-11-20T23:04:51.961Z,0.46
2022-11-20T23:07:40.835Z,0.26
2022-11-20T23:10:26.364Z,0.32
2022-11-20T23:13:11.332Z,0.36
2022-11-20T23:16:05.122Z,0.32
2022-11-20T23:18:57.469Z,0.22
2022-11-20T23:21:43.156Z,0.23
2022-11-20T23:24:28.429Z,0.16
2022-11-20T23:27:13.382Z,0.15
2022-11-20T23:29:58.263Z,0.17
2022-11-20T23:32:43.755Z,0.19
2022-11-20T23:35:28.965Z,0.25
2022-11-20T23:38:13.964Z,0.24
2022-11-20T23:40:59.138Z,0.33
2022-11-20T23:43:44.294Z,0.39
2022-11-20T23:46:29.082Z,0.35
2022-11-20T23:49:13.998Z,0.34
2022-11-20T23:51:59.012Z,0.55
2022-11-20T23:54:43.897Z,0.48
2022-11-20T23:57:29.259Z,0.51
